createdAt,value
2023-03-01T00:01:23.194Z,-3.61
2023-03-01T00:03:50.327Z,-3.62
2023-03-01T00:06:16.863Z,-3.64
2023-03-01T00:08:43.442Z,-3.67
2023-03-01T00:11:13.478Z,-3.66
2023-03-01T00:13:40.155Z,-3.71
2023-03-01T00:16:11.874Z,-3.74
2023-03-01T00:18:38.298Z,-3.76
2023-03-01T00:21:04.939Z,-3.78
2023-03-01T00:23:31.402Z,-3.73
2023-03-01T00:25:57.959Z,-3.74
2023-03-01T00:28:24.613Z,-3.76
2023-03-01T00:30:51.130Z,-3.79
2023-03-01T00:33:17.863Z,-3.81
2023-03-01T00:35:44.408Z,-3.83
2023-03-01T00:38:11.042Z,-3.86
2023-03-01T00:40:37.558Z,-3.88
2023-03-01T00:43:04.757Z,-3.86
2023-03-01T00:45:32.307Z,-3.89
2023-03-01T00:47:58.827Z,-3.91
2023-03-01T00:50:25.247Z,-3.95
2023-03-01T00:52:55.872Z,-3.93
2023-03-01T00:55:22.388Z,-3.95
2023-03-01T00:57:48.862Z,-3.98
2023-03-01T01:00:15.715Z,-4.01
2023-03-01T01:02:42.269Z,-4.03
2023-03-01T01:05:08.919Z,-4.03
2023-03-01T01:07:35.445Z,-4.05
2023-03-01T01:10:02.245Z,-4.08
2023-03-01T01:12:28.784Z,-4.10
2023-03-01T01:14:55.232Z,-4.05
2023-03-01T01:17:21.956Z,-4.04
2023-03-01T01:19:48.407Z,-4.08
2023-03-01T01:22:14.872Z,-4.12
2023-03-01T01:24:41.272Z,-4.15
2023-03-01T01:27:08.281Z,-4.14
2023-03-01T01:29:34.757Z,-4.14
2023-03-01T01:32:01.343Z,-4.16
2023-03-01T01:34:27.841Z,-4.21
2023-03-01T01:36:55.134Z,-4.22
2023-03-01T01:39:21.979Z,-4.22
2023-03-01T01:41:48.695Z,-4.22
2023-03-01T01:44:15.215Z,-4.16
2023-03-01T01:46:43.033Z,-4.17
2023-03-01T01:49:18.565Z,-4.23
2023-03-01T01:51:47.396Z,-4.22
2023-03-01T01:54:17.967Z,-4.23
2023-03-01T01:56:49.188Z,-4.27
2023-03-01T01:59:15.867Z,-4.28
2023-03-01T02:01:42.338Z,-4.30
2023-03-01T02:04:08.835Z,-4.31
2023-03-01T02:06:39.022Z,-4.29
2023-03-01T02:09:12.357Z,-4.29
2023-03-01T02:11:38.806Z,-4.28
2023-03-01T02:14:05.429Z,-4.26
2023-03-01T02:16:32.430Z,-4.26
2023-03-01T02:18:59.413Z,-4.29
2023-03-01T02:21:46.262Z,-4.33
2023-03-01T02:24:20.301Z,-4.38
2023-03-01T02:26:49.553Z,-4.38
2023-03-01T02:29:16.031Z,-4.38
2023-03-01T02:31:42.562Z,-4.31
2023-03-01T02:34:10.300Z,-4.32
2023-03-01T02:36:57.025Z,-4.35
2023-03-01T02:39:29.979Z,-4.43
2023-03-01T02:41:57.446Z,-4.45
2023-03-01T02:44:24.032Z,-4.43
2023-03-01T02:46:55.241Z,-4.46
2023-03-01T02:49:21.767Z,-4.53
2023-03-01T02:51:57.455Z,-4.56
2023-03-01T02:54:27.881Z,-4.48
2023-03-01T02:56:54.459Z,-4.46
2023-03-01T02:59:23.246Z,-4.50
2023-03-01T03:01:49.680Z,-4.53
2023-03-01T03:04:18.182Z,-4.57
2023-03-01T03:06:45.311Z,-4.57
2023-03-01T03:09:12.278Z,-4.62
2023-03-01T03:11:40.204Z,-4.67
2023-03-01T03:14:06.854Z,-4.66
2023-03-01T03:16:33.791Z,-4.61
2023-03-01T03:19:06.099Z,-4.50
2023-03-01T03:21:33.809Z,-4.47
2023-03-01T03:24:00.631Z,-4.48
2023-03-01T03:26:27.116Z,-4.49
2023-03-01T03:28:53.616Z,-4.52
2023-03-01T03:31:20.158Z,-4.55
2023-03-01T03:33:46.605Z,-4.59
2023-03-01T03:36:18.771Z,-4.60
2023-03-01T03:38:46.595Z,-4.58
2023-03-01T03:41:13.892Z,-4.58
2023-03-01T03:43:41.308Z,-4.57
2023-03-01T03:46:08.248Z,-4.55
2023-03-01T03:48:35.392Z,-4.55
2023-03-01T03:51:02.060Z,-4.62
2023-03-01T03:53:29.783Z,-4.68
2023-03-01T03:55:56.265Z,-4.64
2023-03-01T03:58:23.697Z,-4.68
2023-03-01T04:00:51.960Z,-4.66
2023-03-01T04:03:19.832Z,-4.66
2023-03-01T04:05:46.529Z,-4.71
2023-03-01T04:08:13.024Z,-4.76
2023-03-01T04:10:43.822Z,-4.80
2023-03-01T04:13:14.321Z,-4.76
2023-03-01T04:15:41.296Z,-4.82
2023-03-01T04:18:08.230Z,-4.82
2023-03-01T04:20:35.941Z,-4.80
2023-03-01T04:23:12.066Z,-4.74
2023-03-01T04:25:42.534Z,-4.76
2023-03-01T04:28:09.912Z,-4.78
2023-03-01T04:30:37.387Z,-4.82
2023-03-01T04:33:05.139Z,-4.82
2023-03-01T04:35:32.460Z,-4.82
2023-03-01T04:37:59.056Z,-4.83
2023-03-01T04:40:26.058Z,-4.90
2023-03-01T04:42:52.488Z,-4.87
2023-03-01T04:45:19.139Z,-4.90
2023-03-01T04:47:46.966Z,-4.94
2023-03-01T04:50:14.694Z,-4.95
2023-03-01T04:52:41.282Z,-4.95
2023-03-01T04:55:08.305Z,-4.99
2023-03-01T04:57:34.823Z,-4.98
2023-03-01T05:00:01.300Z,-5.00
2023-03-01T05:02:27.734Z,-5.03
2023-03-01T05:04:58.548Z,-5.04
2023-03-01T05:07:25.999Z,-5.02
2023-03-01T05:09:54.993Z,-5.05
2023-03-01T05:12:21.533Z,-5.00
2023-03-01T05:14:48.137Z,-4.99
2023-03-01T05:17:14.562Z,-4.94
2023-03-01T05:19:43.642Z,-4.95
2023-03-01T05:22:10.381Z,-4.98
2023-03-01T05:24:36.900Z,-4.98
2023-03-01T05:27:03.756Z,-4.94
2023-03-01T05:29:31.604Z,-4.98
2023-03-01T05:31:59.444Z,-5.00
2023-03-01T05:34:26.425Z,-5.03
2023-03-01T05:36:54.146Z,-5.05
2023-03-01T05:39:22.927Z,-5.06
2023-03-01T05:41:52.998Z,-5.10
2023-03-01T05:44:19.438Z,-5.03
2023-03-01T05:46:46.024Z,-5.01
2023-03-01T05:49:14.373Z,-4.97
2023-03-01T05:51:41.295Z,-4.89
2023-03-01T05:54:08.089Z,-4.89
2023-03-01T05:56:35.314Z,-4.95
2023-03-01T05:59:02.448Z,-4.94
2023-03-01T06:01:28.985Z,-4.97
2023-03-01T06:03:55.459Z,-4.95
2023-03-01T06:06:21.985Z,-4.88
2023-03-01T06:08:48.433Z,-4.89
2023-03-01T06:11:14.880Z,-4.96
2023-03-01T06:13:42.303Z,-4.93
2023-03-01T06:16:09.047Z,-4.90
2023-03-01T06:18:35.544Z,-4.84
2023-03-01T06:21:02.003Z,-4.82
2023-03-01T06:23:28.473Z,-4.78
2023-03-01T06:25:55.109Z,-4.74
2023-03-01T06:28:21.884Z,-4.75
2023-03-01T06:30:48.432Z,-4.73
2023-03-01T06:33:14.983Z,-4.64
2023-03-01T06:35:41.403Z,-4.55
2023-03-01T06:38:08.533Z,-4.50
2023-03-01T06:40:36.388Z,-4.45
2023-03-01T06:43:03.149Z,-4.41
2023-03-01T06:45:29.656Z,-4.46
2023-03-01T06:48:02.407Z,-4.47
2023-03-01T06:50:28.853Z,-4.51
2023-03-01T06:52:58.389Z,-4.52
2023-03-01T06:55:24.837Z,-4.51
2023-03-01T06:57:55.235Z,-4.50
2023-03-01T07:00:21.941Z,-4.49
2023-03-01T07:02:48.472Z,-4.49
2023-03-01T07:05:14.982Z,-4.47
2023-03-01T07:07:41.444Z,-4.43
2023-03-01T07:10:08.210Z,-4.39
2023-03-01T07:12:34.666Z,-4.35
2023-03-01T07:15:01.246Z,-4.30
2023-03-01T07:17:27.764Z,-4.27
2023-03-01T07:19:54.191Z,-4.21
2023-03-01T07:22:20.637Z,-4.17
2023-03-01T07:24:47.114Z,-4.12
2023-03-01T07:27:13.531Z,-4.10
2023-03-01T07:29:39.970Z,-4.08
2023-03-01T07:32:06.889Z,-4.05
2023-03-01T07:34:33.534Z,-4.00
2023-03-01T07:37:00.085Z,-3.93
2023-03-01T07:39:26.586Z,-3.87
2023-03-01T07:41:53.377Z,-3.83
2023-03-01T07:44:20.007Z,-3.81
2023-03-01T07:46:46.486Z,-3.75
2023-03-01T07:49:12.904Z,-3.68
2023-03-01T07:51:39.674Z,-3.65
2023-03-01T07:54:06.338Z,-3.60
2023-03-01T07:56:33.134Z,-3.54
2023-03-01T07:59:00.453Z,-3.48
2023-03-01T08:01:26.948Z,-3.41
2023-03-01T08:03:53.485Z,-3.33
2023-03-01T08:06:19.999Z,-3.27
2023-03-01T08:08:46.503Z,-3.22
2023-03-01T08:11:14.270Z,-3.18
2023-03-01T08:13:40.843Z,-3.13
2023-03-01T08:16:16.602Z,-2.95
2023-03-01T08:18:43.588Z,-2.71
2023-03-01T08:21:12.025Z,-2.57
2023-03-01T08:23:38.876Z,-2.48
2023-03-01T08:26:16.170Z,-2.45
2023-03-01T08:28:42.896Z,-2.40
2023-03-01T08:31:23.284Z,-2.36
2023-03-01T08:33:56.516Z,-2.31
2023-03-01T08:36:34.241Z,-2.27
2023-03-01T08:39:00.942Z,-2.20
2023-03-01T08:41:27.648Z,-2.15
2023-03-01T08:43:59.425Z,-2.09
2023-03-01T08:46:27.180Z,-2.04
2023-03-01T08:48:53.633Z,-2.00
2023-03-01T08:51:21.573Z,-1.90
2023-03-01T08:53:48.551Z,-1.81
2023-03-01T08:56:15.171Z,-1.72
2023-03-01T08:58:44.295Z,-1.64
2023-03-01T09:01:15.052Z,-1.57
2023-03-01T09:03:41.878Z,-1.47
2023-03-01T09:06:08.701Z,-1.37
2023-03-01T09:08:35.934Z,-1.26
2023-03-01T09:11:06.296Z,-1.16
2023-03-01T09:13:33.107Z,-1.08
2023-03-01T09:15:59.916Z,-0.97
2023-03-01T09:18:26.363Z,-0.83
2023-03-01T09:20:52.922Z,-0.71
2023-03-01T09:23:19.549Z,-0.60
2023-03-01T09:25:45.993Z,-0.50
2023-03-01T09:28:27.638Z,-0.39
2023-03-01T09:30:58.896Z,-0.28
2023-03-01T09:33:25.492Z,-0.17
2023-03-01T09:35:56.952Z,-0.03
2023-03-01T09:38:24.872Z,0.09
2023-03-01T09:40:52.400Z,0.23
2023-03-01T09:43:28.925Z,0.39
2023-03-01T09:45:56.922Z,0.55
2023-03-01T09:48:26.128Z,0.69
2023-03-01T09:50:53.298Z,0.84
2023-03-01T09:53:24.933Z,0.99
2023-03-01T09:56:06.588Z,1.14
2023-03-01T09:58:53.619Z,1.32
2023-03-01T10:01:22.957Z,1.46
2023-03-01T10:04:02.354Z,1.66
2023-03-01T10:06:34.824Z,1.94
2023-03-01T10:09:06.580Z,2.04
2023-03-01T10:11:36.981Z,2.13
2023-03-01T10:14:14.160Z,2.25
2023-03-01T10:16:55.039Z,2.38
2023-03-01T10:19:28.095Z,2.54
2023-03-01T10:21:55.024Z,2.67
2023-03-01T10:24:22.675Z,2.82
2023-03-01T10:27:00.231Z,2.92
2023-03-01T10:29:31.916Z,3.05
2023-03-01T10:31:58.602Z,3.16
2023-03-01T10:34:30.191Z,3.28
2023-03-01T10:36:57.877Z,3.37
2023-03-01T10:39:25.550Z,3.48
2023-03-01T10:41:56.809Z,3.59
2023-03-01T10:44:38.895Z,3.73
2023-03-01T10:47:05.432Z,3.84
2023-03-01T10:49:32.022Z,3.95
2023-03-01T10:52:12.187Z,4.06
2023-03-01T10:54:38.840Z,4.17
2023-03-01T10:57:06.349Z,4.30
2023-03-01T10:59:34.222Z,4.36
2023-03-01T11:02:25.331Z,4.47
2023-03-01T11:04:58.504Z,4.51
2023-03-01T11:07:24.996Z,4.53
2023-03-01T11:09:51.525Z,4.54
2023-03-01T11:12:18.376Z,4.65
2023-03-01T11:14:49.860Z,4.68
2023-03-01T11:17:23.977Z,4.80
2023-03-01T11:20:09.080Z,4.81
2023-03-01T11:22:36.493Z,4.88
2023-03-01T11:25:10.583Z,4.98
2023-03-01T11:27:43.194Z,5.07
2023-03-01T11:30:28.200Z,5.08
2023-03-01T11:33:07.078Z,5.14
2023-03-01T11:35:36.648Z,5.17
2023-03-01T11:38:03.109Z,5.13
2023-03-01T11:40:36.244Z,5.06
2023-03-01T11:43:07.452Z,5.06
2023-03-01T11:45:46.667Z,5.01
2023-03-01T11:48:26.913Z,5.04
2023-03-01T11:50:55.757Z,5.03
2023-03-01T11:53:48.511Z,5.10
2023-03-01T11:56:33.939Z,5.19
2023-03-01T11:59:09.524Z,5.23
2023-03-01T12:01:42.743Z,5.28
2023-03-01T12:04:12.462Z,5.25
2023-03-01T12:06:57.931Z,5.28
2023-03-01T12:09:44.722Z,5.32
2023-03-01T12:12:13.911Z,5.36
2023-03-01T12:14:59.193Z,5.30
2023-03-01T12:17:48.183Z,5.33
2023-03-01T12:20:20.865Z,5.36
2023-03-01T12:23:11.281Z,5.37
2023-03-01T12:25:54.010Z,5.41
2023-03-01T12:28:39.353Z,5.41
2023-03-01T12:31:29.305Z,5.42
2023-03-01T12:34:00.610Z,5.42
2023-03-01T12:36:41.618Z,5.34
2023-03-01T12:39:17.077Z,5.40
2023-03-01T12:41:49.587Z,5.36
2023-03-01T12:44:34.638Z,5.38
2023-03-01T12:47:19.838Z,5.34
2023-03-01T12:49:49.025Z,5.40
2023-03-01T12:52:20.344Z,5.46
2023-03-01T12:54:47.870Z,5.49
2023-03-01T12:57:40.392Z,5.55
2023-03-01T13:00:18.851Z,5.68
2023-03-01T13:02:57.322Z,5.64
2023-03-01T13:05:29.742Z,5.57
2023-03-01T13:07:56.153Z,5.59
2023-03-01T13:10:34.251Z,5.66
2023-03-01T13:13:12.967Z,5.60
2023-03-01T13:15:40.524Z,5.62
2023-03-01T13:18:16.419Z,5.63
2023-03-01T13:20:42.944Z,5.60
2023-03-01T13:23:12.561Z,5.57
2023-03-01T13:25:57.617Z,5.59
2023-03-01T13:28:38.657Z,5.61
2023-03-01T13:31:07.389Z,5.55
2023-03-01T13:33:37.466Z,5.53
2023-03-01T13:36:04.148Z,5.54
2023-03-01T13:38:59.011Z,5.47
2023-03-01T13:41:45.857Z,5.45
2023-03-01T13:44:21.122Z,5.46
2023-03-01T13:46:48.389Z,5.45
2023-03-01T13:49:20.013Z,5.53
2023-03-01T13:51:50.151Z,5.59
2023-03-01T13:54:21.124Z,5.56
2023-03-01T13:56:47.760Z,5.53
2023-03-01T13:59:15.151Z,5.52
2023-03-01T14:01:43.745Z,5.49
2023-03-01T14:04:32.342Z,5.53
2023-03-01T14:07:18.821Z,5.52
2023-03-01T14:09:46.526Z,5.47
2023-03-01T14:12:42.416Z,5.50
2023-03-01T14:15:26.911Z,5.50
2023-03-01T14:17:59.129Z,5.49
2023-03-01T14:20:27.277Z,5.47
2023-03-01T14:22:55.472Z,5.41
2023-03-01T14:25:32.015Z,5.34
2023-03-01T14:28:00.206Z,5.35
2023-03-01T14:30:28.973Z,5.31
2023-03-01T14:32:56.860Z,5.24
2023-03-01T14:35:25.599Z,5.23
2023-03-01T14:37:52.120Z,5.26
2023-03-01T14:40:23.299Z,5.27
2023-03-01T14:42:49.787Z,5.32
2023-03-01T14:45:16.383Z,5.30
2023-03-01T14:47:44.671Z,5.33
2023-03-01T14:50:11.136Z,5.23
2023-03-01T14:52:39.424Z,5.22
2023-03-01T14:55:18.188Z,5.14
2023-03-01T14:57:53.756Z,5.13
2023-03-01T15:00:29.968Z,5.16
2023-03-01T15:02:57.950Z,5.10
2023-03-01T15:05:27.083Z,5.05
2023-03-01T15:07:54.246Z,4.99
2023-03-01T15:10:22.471Z,4.91
2023-03-01T15:12:49.077Z,4.91
2023-03-01T15:15:24.604Z,4.93
2023-03-01T15:17:56.350Z,4.91
2023-03-01T15:20:26.770Z,4.89
2023-03-01T15:22:54.060Z,4.84
2023-03-01T15:25:22.519Z,4.88
2023-03-01T15:27:50.421Z,4.86
2023-03-01T15:30:24.902Z,4.85
2023-03-01T15:33:20.180Z,4.84
2023-03-01T15:35:49.264Z,4.84
2023-03-01T15:38:36.125Z,4.82
2023-03-01T15:41:04.728Z,4.79
2023-03-01T15:43:45.062Z,4.73
2023-03-01T15:46:35.337Z,4.64
2023-03-01T15:49:03.928Z,4.49
2023-03-01T15:51:33.033Z,4.23
2023-03-01T15:54:00.537Z,4.05
2023-03-01T15:56:27.145Z,4.00
2023-03-01T15:58:53.587Z,3.95
2023-03-01T16:01:20.219Z,3.89
2023-03-01T16:03:46.791Z,3.81
2023-03-01T16:06:13.406Z,3.76
2023-03-01T16:08:39.880Z,3.70
2023-03-01T16:11:10.106Z,3.64
2023-03-01T16:13:36.593Z,3.50
2023-03-01T16:16:03.140Z,3.40
2023-03-01T16:18:29.773Z,3.25
2023-03-01T16:20:56.294Z,3.19
2023-03-01T16:23:25.911Z,3.14
2023-03-01T16:25:52.570Z,3.00
2023-03-01T16:28:19.005Z,2.86
2023-03-01T16:30:51.832Z,2.77
2023-03-01T16:33:30.952Z,2.73
2023-03-01T16:36:01.219Z,2.70
2023-03-01T16:38:27.776Z,2.62
2023-03-01T16:40:54.349Z,2.58
2023-03-01T16:43:20.921Z,2.53
2023-03-01T16:45:47.651Z,2.45
2023-03-01T16:48:14.258Z,2.37
2023-03-01T16:50:41.227Z,2.29
2023-03-01T16:53:08.006Z,2.23
2023-03-01T16:55:34.560Z,2.20
2023-03-01T16:58:01.332Z,2.13
2023-03-01T17:00:27.897Z,2.06
2023-03-01T17:02:55.109Z,1.98
2023-03-01T17:05:24.718Z,1.91
2023-03-01T17:07:51.566Z,1.80
2023-03-01T17:10:18.117Z,1.72
2023-03-01T17:12:44.633Z,1.63
2023-03-01T17:15:12.901Z,1.56
2023-03-01T17:17:39.659Z,1.51
2023-03-01T17:20:06.261Z,1.47
2023-03-01T17:22:32.732Z,1.43
2023-03-01T17:24:59.363Z,1.32
2023-03-01T17:27:25.990Z,1.27
2023-03-01T17:29:52.511Z,1.22
2023-03-01T17:32:19.095Z,1.11
2023-03-01T17:34:46.544Z,1.08
2023-03-01T17:37:13.003Z,1.01
2023-03-01T17:39:39.433Z,0.94
2023-03-01T17:42:06.809Z,0.86
2023-03-01T17:44:34.719Z,0.79
2023-03-01T17:47:01.857Z,0.76
2023-03-01T17:49:29.028Z,0.66
2023-03-01T17:51:55.523Z,0.56
2023-03-01T17:54:21.956Z,0.51
2023-03-01T17:56:50.667Z,0.50
2023-03-01T17:59:20.027Z,0.47
2023-03-01T18:01:46.609Z,0.48
2023-03-01T18:04:13.420Z,0.40
2023-03-01T18:06:40.953Z,0.32
2023-03-01T18:09:07.703Z,0.27
2023-03-01T18:11:35.547Z,0.19
2023-03-01T18:14:02.016Z,0.14
2023-03-01T18:16:29.925Z,0.08
2023-03-01T18:18:57.469Z,0.00
2023-03-01T18:21:24.012Z,-0.07
2023-03-01T18:23:50.611Z,-0.12
2023-03-01T18:26:19.678Z,-0.18
2023-03-01T18:28:47.613Z,-0.24
2023-03-01T18:31:18.359Z,-0.33
2023-03-01T18:33:45.473Z,-0.41
2023-03-01T18:36:23.385Z,-0.41
2023-03-01T18:38:50.274Z,-0.46
2023-03-01T18:41:16.858Z,-0.52
2023-03-01T18:43:43.302Z,-0.56
2023-03-01T18:46:10.099Z,-0.59
2023-03-01T18:48:36.973Z,-0.61
2023-03-01T18:51:09.783Z,-0.67
2023-03-01T18:53:36.359Z,-0.72
2023-03-01T18:56:02.853Z,-0.76
2023-03-01T18:58:29.560Z,-0.81
2023-03-01T19:00:56.014Z,-0.85
2023-03-01T19:03:22.570Z,-0.91
2023-03-01T19:05:49.231Z,-0.97
2023-03-01T19:08:15.611Z,-1.01
2023-03-01T19:10:42.154Z,-1.07
2023-03-01T19:13:08.609Z,-1.09
2023-03-01T19:15:35.267Z,-1.12
2023-03-01T19:18:04.452Z,-1.15
2023-03-01T19:20:30.952Z,-1.20
2023-03-01T19:22:57.465Z,-1.23
2023-03-01T19:25:23.914Z,-1.21
2023-03-01T19:27:50.348Z,-1.18
2023-03-01T19:30:16.916Z,-1.20
2023-03-01T19:32:43.461Z,-1.25
2023-03-01T19:35:10.071Z,-1.30
2023-03-01T19:37:36.563Z,-1.33
2023-03-01T19:40:03.083Z,-1.38
2023-03-01T19:42:29.771Z,-1.41
2023-03-01T19:44:56.306Z,-1.46
2023-03-01T19:47:22.753Z,-1.48
2023-03-01T19:49:49.225Z,-1.48
2023-03-01T19:52:15.722Z,-1.48
2023-03-01T19:54:42.211Z,-1.49
2023-03-01T19:57:08.803Z,-1.48
2023-03-01T19:59:35.314Z,-1.49
2023-03-01T20:02:01.832Z,-1.54
2023-03-01T20:04:28.322Z,-1.60
2023-03-01T20:06:55.013Z,-1.61
2023-03-01T20:09:22.637Z,-1.67
2023-03-01T20:11:49.562Z,-1.74
2023-03-01T20:14:16.029Z,-1.78
2023-03-01T20:16:42.580Z,-1.83
2023-03-01T20:19:09.278Z,-1.86
2023-03-01T20:21:35.801Z,-1.89
2023-03-01T20:24:02.310Z,-1.93
2023-03-01T20:26:29.294Z,-1.99
2023-03-01T20:28:57.069Z,-1.99
2023-03-01T20:31:29.234Z,-2.02
2023-03-01T20:33:57.498Z,-2.05
2023-03-01T20:36:23.956Z,-2.03
2023-03-01T20:38:51.789Z,-2.01
2023-03-01T20:41:18.248Z,-2.06
2023-03-01T20:43:44.732Z,-2.11
2023-03-01T20:46:11.914Z,-2.15
2023-03-01T20:48:39.722Z,-2.17
2023-03-01T20:51:07.099Z,-2.20
2023-03-01T20:53:33.896Z,-2.19
2023-03-01T20:56:04.449Z,-2.22
2023-03-01T20:58:32.898Z,-2.28
2023-03-01T21:00:59.971Z,-2.30
2023-03-01T21:03:26.519Z,-2.37
2023-03-01T21:05:56.616Z,-2.36
2023-03-01T21:08:23.068Z,-2.35
2023-03-01T21:10:50.639Z,-2.35
2023-03-01T21:13:17.060Z,-2.40
2023-03-01T21:15:43.596Z,-2.46
2023-03-01T21:18:10.042Z,-2.50
2023-03-01T21:20:42.839Z,-2.48
2023-03-01T21:23:09.357Z,-2.50
2023-03-01T21:25:35.844Z,-2.54
2023-03-01T21:28:02.279Z,-2.59
2023-03-01T21:30:28.872Z,-2.56
2023-03-01T21:32:55.454Z,-2.57
2023-03-01T21:35:22.046Z,-2.53
2023-03-01T21:37:48.492Z,-2.53
2023-03-01T21:40:15.147Z,-2.57
2023-03-01T21:42:44.331Z,-2.63
2023-03-01T21:45:10.853Z,-2.64
2023-03-01T21:47:38.317Z,-2.68
2023-03-01T21:50:05.135Z,-2.73
2023-03-01T21:52:31.580Z,-2.77
2023-03-01T21:55:01.977Z,-2.75
2023-03-01T21:57:28.466Z,-2.69
2023-03-01T21:59:55.017Z,-2.66
2023-03-01T22:02:21.471Z,-2.69
2023-03-01T22:04:47.957Z,-2.63
2023-03-01T22:07:14.389Z,-2.58
2023-03-01T22:09:40.943Z,-2.61
2023-03-01T22:12:07.482Z,-2.68
2023-03-01T22:14:35.019Z,-2.75
2023-03-01T22:17:01.780Z,-2.77
2023-03-01T22:19:28.880Z,-2.77
2023-03-01T22:21:55.332Z,-2.76
2023-03-01T22:24:23.058Z,-2.75
2023-03-01T22:26:50.130Z,-2.79
2023-03-01T22:29:19.113Z,-2.85
2023-03-01T22:31:45.911Z,-2.88
2023-03-01T22:34:12.426Z,-2.88
2023-03-01T22:36:41.840Z,-2.88
2023-03-01T22:39:08.320Z,-2.91
2023-03-01T22:41:36.546Z,-2.98
2023-03-01T22:44:03.096Z,-3.01
2023-03-01T22:46:30.378Z,-3.03
2023-03-01T22:48:57.074Z,-3.07
2023-03-01T22:51:28.198Z,-3.14
2023-03-01T22:53:55.002Z,-3.16
2023-03-01T22:56:23.027Z,-3.17
2023-03-01T22:58:49.595Z,-3.18
2023-03-01T23:01:17.456Z,-3.19
2023-03-01T23:03:44.495Z,-3.12
2023-03-01T23:06:11.434Z,-3.10
2023-03-01T23:08:37.887Z,-3.15
2023-03-01T23:11:08.831Z,-3.19
2023-03-01T23:13:35.277Z,-3.24
2023-03-01T23:16:01.740Z,-3.25
2023-03-01T23:18:28.347Z,-3.30
2023-03-01T23:20:54.779Z,-3.32
2023-03-01T23:23:21.940Z,-3.33
2023-03-01T23:25:57.671Z,-3.37
2023-03-01T23:28:25.377Z,-3.40
2023-03-01T23:30:59.306Z,-3.41
2023-03-01T23:33:26.076Z,-3.47
2023-03-01T23:35:52.694Z,-3.46
2023-03-01T23:38:20.038Z,-3.46
2023-03-01T23:40:47.005Z,-3.49
2023-03-01T23:43:13.672Z,-3.55
2023-03-01T23:45:43.906Z,-3.57
2023-03-01T23:48:11.488Z,-3.53
2023-03-01T23:50:44.250Z,-3.52
2023-03-01T23:53:15.293Z,-3.51
2023-03-01T23:55:44.709Z,-3.56
2023-03-01T23:58:11.389Z,-3.55
